sensor_id;sensor_type;location;lat;lon;timestamp;temperature;humidity
3360;DHT22;1693;49.602;11.046;2022-11-24T00:02:10;5.30;99.90
3360;DHT22;1693;49.602;11.046;2022-11-24T00:04:37;5.30;99.90
3360;DHT22;1693;49.602;11.046;2022-11-24T00:07:06;5.40;99.90
3360;DHT22;1693;49.602;11.046;2022-11-24T00:09:33;5.30;99.90
3360;DHT22;1693;49.602;11.046;2022-11-24T00:12:00;5.40;99.90
3360;DHT22;1693;49.602;11.046;2022-11-24T00:14:27;5.50;99.90
3360;DHT22;1693;49.602;11.046;2022-11-24T00:16:54;5.60;99.90
3360;DHT22;1693;49.602;11.046;2022-11-24T00:19:21;5.60;99.90
3360;DHT22;1693;49.602;11.046;2022-11-24T00:21:48;5.70;99.90
3360;DHT22;1693;49.602;11.046;2022-11-24T00:24:17;5.70;99.90
3360;DHT22;1693;49.602;11.046;2022-11-24T00:26:44;5.70;99.90
3360;DHT22;1693;49.602;11.046;2022-11-24T00:29:11;5.70;99.90
3360;DHT22;1693;49.602;11.046;2022-11-24T00:31:40;5.80;99.90
3360;DHT22;1693;49.602;11.046;2022-11-24T00:34:10;5.80;99.90
3360;DHT22;1693;49.602;11.046;2022-11-24T00:36:38;5.80;99.90
3360;DHT22;1693;49.602;11.046;2022-11-24T00:39:07;5.90;99.90
3360;DHT22;1693;49.602;11.046;2022-11-24T00:41:37;5.80;99.90
3360;DHT22;1693;49.602;11.046;2022-11-24T00:44:04;6.00;99.90
3360;DHT22;1693;49.602;11.046;2022-11-24T00:46:32;6.10;99.90
3360;DHT22;1693;49.602;11.046;2022-11-24T00:48:59;6.00;99.90
3360;DHT22;1693;49.602;11.046;2022-11-24T00:51:27;6.00;99.90
3360;DHT22;1693;49.602;11.046;2022-11-24T00:53:56;6.00;99.90
3360;DHT22;1693;49.602;11.046;2022-11-24T00:56:24;6.10;99.90
3360;DHT22;1693;49.602;11.046;2022-11-24T00:58:52;6.00;99.90
3360;DHT22;1693;49.602;11.046;2022-11-24T01:01:22;5.80;99.90
3360;DHT22;1693;49.602;11.046;2022-11-24T01:03:50;5.80;99.90
3360;DHT22;1693;49.602;11.046;2022-11-24T01:06:19;5.70;99.90
3360;DHT22;1693;49.602;11.046;2022-11-24T01:08:47;5.70;99.90
3360;DHT22;1693;49.602;11.046;2022-11-24T01:11:17;5.60;99.90
3360;DHT22;1693;49.602;11.046;2022-11-24T01:13:46;5.50;99.90
3360;DHT22;1693;49.602;11.046;2022-11-24T01:16:17;5.60;99.90
3360;DHT22;1693;49.602;11.046;2022-11-24T01:18:45;5.50;99.90
3360;DHT22;1693;49.602;11.046;2022-11-24T01:21:14;5.50;99.90
3360;DHT22;1693;49.602;11.046;2022-11-24T01:23:41;5.50;99.90
3360;DHT22;1693;49.602;11.046;2022-11-24T01:26:12;5.50;99.90
3360;DHT22;1693;49.602;11.046;2022-11-24T01:28:40;5.60;99.90
3360;DHT22;1693;49.602;11.046;2022-11-24T01:31:09;5.60;99.90
3360;DHT22;1693;49.602;11.046;2022-11-24T01:33:38;5.80;99.90
3360;DHT22;1693;49.602;11.046;2022-11-24T01:36:06;5.80;99.90
3360;DHT22;1693;49.602;11.046;2022-11-24T01:38:33;5.70;99.90
3360;DHT22;1693;49.602;11.046;2022-11-24T01:41:02;5.50;99.90
3360;DHT22;1693;49.602;11.046;2022-11-24T01:43:29;5.60;99.90
3360;DHT22;1693;49.602;11.046;2022-11-24T01:45:57;5.60;99.90
3360;DHT22;1693;49.602;11.046;2022-11-24T01:48:31;5.70;99.90
3360;DHT22;1693;49.602;11.046;2022-11-24T01:51:06;5.70;99.90
3360;DHT22;1693;49.602;11.046;2022-11-24T01:53:34;5.70;99.90
3360;DHT22;1693;49.602;11.046;2022-11-24T01:56:02;5.80;99.90
3360;DHT22;1693;49.602;11.046;2022-11-24T01:58:30;5.80;99.90
3360;DHT22;1693;49.602;11.046;2022-11-24T02:00:58;5.80;99.90
3360;DHT22;1693;49.602;11.046;2022-11-24T02:03:29;5.80;99.90
3360;DHT22;1693;49.602;11.046;2022-11-24T02:06:01;5.70;99.90
3360;DHT22;1693;49.602;11.046;2022-11-24T02:08:33;5.80;99.90
3360;DHT22;1693;49.602;11.046;2022-11-24T02:11:05;5.80;99.90
3360;DHT22;1693;49.602;11.046;2022-11-24T02:13:33;5.80;99.90
3360;DHT22;1693;49.602;11.046;2022-11-24T02:16:03;5.80;99.90
3360;DHT22;1693;49.602;11.046;2022-11-24T02:18:30;5.80;99.90
3360;DHT22;1693;49.602;11.046;2022-11-24T02:20:58;5.80;99.90
3360;DHT22;1693;49.602;11.046;2022-11-24T02:23:34;5.90;99.90
3360;DHT22;1693;49.602;11.046;2022-11-24T02:26:08;5.90;99.90
3360;DHT22;1693;49.602;11.046;2022-11-24T02:28:39;6.00;99.90
3360;DHT22;1693;49.602;11.046;2022-11-24T02:31:06;6.00;99.90
3360;DHT22;1693;49.602;11.046;2022-11-24T02:33:34;6.00;99.90
3360;DHT22;1693;49.602;11.046;2022-11-24T02:36:03;6.10;99.90
3360;DHT22;1693;49.602;11.046;2022-11-24T02:38:31;6.10;99.90
3360;DHT22;1693;49.602;11.046;2022-11-24T02:41:01;6.00;99.90
3360;DHT22;1693;49.602;11.046;2022-11-24T02:43:32;5.90;99.90
3360;DHT22;1693;49.602;11.046;2022-11-24T02:46:02;5.90;99.90
3360;DHT22;1693;49.602;11.046;2022-11-24T02:48:29;6.00;99.90
3360;DHT22;1693;49.602;11.046;2022-11-24T02:50:56;6.00;99.90
3360;DHT22;1693;49.602;11.046;2022-11-24T02:53:23;6.10;99.90
3360;DHT22;1693;49.602;11.046;2022-11-24T02:55:50;6.20;99.90
3360;DHT22;1693;49.602;11.046;2022-11-24T02:58:17;6.10;99.90
3360;DHT22;1693;49.602;11.046;2022-11-24T03:00:45;6.20;99.90
3360;DHT22;1693;49.602;11.046;2022-11-24T03:03:13;6.20;99.90
3360;DHT22;1693;49.602;11.046;2022-11-24T03:05:40;6.30;99.90
3360;DHT22;1693;49.602;11.046;2022-11-24T03:08:07;6.30;99.90
3360;DHT22;1693;49.602;11.046;2022-11-24T03:10:34;6.40;99.90
3360;DHT22;1693;49.602;11.046;2022-11-24T03:13:03;6.40;99.90
3360;DHT22;1693;49.602;11.046;2022-11-24T03:15:29;6.40;99.90
3360;DHT22;1693;49.602;11.046;2022-11-24T03:17:56;6.30;99.90
3360;DHT22;1693;49.602;11.046;2022-11-24T03:20:25;6.40;99.90
3360;DHT22;1693;49.602;11.046;2022-11-24T03:22:52;6.40;99.90
3360;DHT22;1693;49.602;11.046;2022-11-24T03:25:20;6.40;99.90
3360;DHT22;1693;49.602;11.046;2022-11-24T03:27:47;6.50;99.90
3360;DHT22;1693;49.602;11.046;2022-11-24T03:30:15;6.40;99.90
3360;DHT22;1693;49.602;11.046;2022-11-24T03:32:42;6.50;99.90
3360;DHT22;1693;49.602;11.046;2022-11-24T03:35:09;6.60;99.90
3360;DHT22;1693;49.602;11.046;2022-11-24T03:37:38;6.60;99.90
3360;DHT22;1693;49.602;11.046;2022-11-24T03:40:06;6.60;99.90
3360;DHT22;1693;49.602;11.046;2022-11-24T03:42:34;6.70;99.90
3360;DHT22;1693;49.602;11.046;2022-11-24T03:45:01;6.60;99.90
3360;DHT22;1693;49.602;11.046;2022-11-24T03:47:29;6.60;99.90
3360;DHT22;1693;49.602;11.046;2022-11-24T03:49:56;6.60;99.90
3360;DHT22;1693;49.602;11.046;2022-11-24T03:52:23;6.50;99.90
3360;DHT22;1693;49.602;11.046;2022-11-24T03:54:52;6.60;99.90
3360;DHT22;1693;49.602;11.046;2022-11-24T03:57:20;6.60;99.90
3360;DHT22;1693;49.602;11.046;2022-11-24T03:59:47;6.70;99.90
3360;DHT22;1693;49.602;11.046;2022-11-24T04:02:14;6.70;99.90
3360;DHT22;1693;49.602;11.046;2022-11-24T04:04:40;6.70;99.90
3360;DHT22;1693;49.602;11.046;2022-11-24T04:07:07;6.60;99.90
3360;DHT22;1693;49.602;11.046;2022-11-24T04:09:35;6.50;99.90
3360;DHT22;1693;49.602;11.046;2022-11-24T04:12:04;6.50;99.90
3360;DHT22;1693;49.602;11.046;2022-11-24T04:14:49;6.50;99.90
3360;DHT22;1693;49.602;11.046;2022-11-24T04:17:16;6.50;99.90
3360;DHT22;1693;49.602;11.046;2022-11-24T04:19:43;6.50;99.90
3360;DHT22;1693;49.602;11.046;2022-11-24T04:22:10;6.60;99.90
3360;DHT22;1693;49.602;11.046;2022-11-24T04:24:37;6.70;99.90
3360;DHT22;1693;49.602;11.046;2022-11-24T04:27:06;6.60;99.90
3360;DHT22;1693;49.602;11.046;2022-11-24T04:29:33;6.60;99.90
3360;DHT22;1693;49.602;11.046;2022-11-24T04:32:00;6.60;99.90
3360;DHT22;1693;49.602;11.046;2022-11-24T04:34:27;6.60;99.90
3360;DHT22;1693;49.602;11.046;2022-11-24T04:36:54;6.60;99.90
3360;DHT22;1693;49.602;11.046;2022-11-24T04:39:21;6.60;99.90
3360;DHT22;1693;49.602;11.046;2022-11-24T04:41:48;6.60;99.90
3360;DHT22;1693;49.602;11.046;2022-11-24T04:44:17;6.60;99.90
3360;DHT22;1693;49.602;11.046;2022-11-24T04:46:44;6.70;99.90
3360;DHT22;1693;49.602;11.046;2022-11-24T04:49:11;6.70;99.90
3360;DHT22;1693;49.602;11.046;2022-11-24T04:51:39;6.70;99.90
3360;DHT22;1693;49.602;11.046;2022-11-24T04:54:08;6.70;99.90
3360;DHT22;1693;49.602;11.046;2022-11-24T04:56:35;6.70;99.90
3360;DHT22;1693;49.602;11.046;2022-11-24T04:59:03;6.70;99.90
3360;DHT22;1693;49.602;11.046;2022-11-24T05:01:32;6.70;99.90
3360;DHT22;1693;49.602;11.046;2022-11-24T05:03:59;6.70;99.90
3360;DHT22;1693;49.602;11.046;2022-11-24T05:06:27;6.70;99.90
3360;DHT22;1693;49.602;11.046;2022-11-24T05:08:53;6.70;99.90
3360;DHT22;1693;49.602;11.046;2022-11-24T05:11:20;6.80;99.90
3360;DHT22;1693;49.602;11.046;2022-11-24T05:13:48;6.80;99.90
3360;DHT22;1693;49.602;11.046;2022-11-24T05:16:15;6.80;99.90
3360;DHT22;1693;49.602;11.046;2022-11-24T05:18:44;6.90;99.90
3360;DHT22;1693;49.602;11.046;2022-11-24T05:21:11;6.90;99.90
3360;DHT22;1693;49.602;11.046;2022-11-24T05:23:38;7.00;99.90
3360;DHT22;1693;49.602;11.046;2022-11-24T05:26:05;7.10;99.90
3360;DHT22;1693;49.602;11.046;2022-11-24T05:28:32;7.00;99.90
3360;DHT22;1693;49.602;11.046;2022-11-24T05:31:00;7.00;99.90
3360;DHT22;1693;49.602;11.046;2022-11-24T05:33:27;7.00;99.90
3360;DHT22;1693;49.602;11.046;2022-11-24T05:35:59;7.20;99.90
3360;DHT22;1693;49.602;11.046;2022-11-24T05:38:26;7.20;99.90
3360;DHT22;1693;49.602;11.046;2022-11-24T05:40:58;7.20;99.90
3360;DHT22;1693;49.602;11.046;2022-11-24T05:43:25;7.30;99.90
3360;DHT22;1693;49.602;11.046;2022-11-24T05:45:52;7.20;99.90
3360;DHT22;1693;49.602;11.046;2022-11-24T05:48:19;7.20;99.90
3360;DHT22;1693;49.602;11.046;2022-11-24T05:50:52;7.20;99.90
3360;DHT22;1693;49.602;11.046;2022-11-24T05:53:20;7.30;99.90
3360;DHT22;1693;49.602;11.046;2022-11-24T05:55:48;7.30;99.90
3360;DHT22;1693;49.602;11.046;2022-11-24T05:58:15;7.30;99.90
3360;DHT22;1693;49.602;11.046;2022-11-24T06:00:42;7.20;99.90
3360;DHT22;1693;49.602;11.046;2022-11-24T06:03:09;7.30;99.90
3360;DHT22;1693;49.602;11.046;2022-11-24T06:05:37;7.20;99.90
3360;DHT22;1693;49.602;11.046;2022-11-24T06:08:04;7.20;99.90
3360;DHT22;1693;49.602;11.046;2022-11-24T06:10:33;7.10;99.90
3360;DHT22;1693;49.602;11.046;2022-11-24T06:13:04;7.00;99.90
3360;DHT22;1693;49.602;11.046;2022-11-24T06:15:31;7.00;99.90
3360;DHT22;1693;49.602;11.046;2022-11-24T06:17:58;6.90;99.90
3360;DHT22;1693;49.602;11.046;2022-11-24T06:20:25;6.80;99.90
3360;DHT22;1693;49.602;11.046;2022-11-24T06:22:53;6.80;99.90
3360;DHT22;1693;49.602;11.046;2022-11-24T06:25:23;6.80;99.90
3360;DHT22;1693;49.602;11.046;2022-11-24T06:27:52;6.80;99.90
3360;DHT22;1693;49.602;11.046;2022-11-24T06:30:19;6.80;99.90
3360;DHT22;1693;49.602;11.046;2022-11-24T06:32:46;6.70;99.90
3360;DHT22;1693;49.602;11.046;2022-11-24T06:35:14;6.70;99.90
3360;DHT22;1693;49.602;11.046;2022-11-24T06:37:41;6.70;99.90
3360;DHT22;1693;49.602;11.046;2022-11-24T06:40:09;6.70;99.90
3360;DHT22;1693;49.602;11.046;2022-11-24T06:42:37;6.70;99.90
3360;DHT22;1693;49.602;11.046;2022-11-24T06:45:10;6.80;99.90
3360;DHT22;1693;49.602;11.046;2022-11-24T06:47:38;6.80;99.90
3360;DHT22;1693;49.602;11.046;2022-11-24T06:50:08;6.90;99.90
3360;DHT22;1693;49.602;11.046;2022-11-24T06:52:35;6.90;99.90
3360;DHT22;1693;49.602;11.046;2022-11-24T06:55:03;7.00;99.90
3360;DHT22;1693;49.602;11.046;2022-11-24T06:57:31;7.00;99.90
3360;DHT22;1693;49.602;11.046;2022-11-24T06:59:58;7.10;99.90
3360;DHT22;1693;49.602;11.046;2022-11-24T07:02:28;7.20;99.90
3360;DHT22;1693;49.602;11.046;2022-11-24T07:04:55;7.30;99.90
3360;DHT22;1693;49.602;11.046;2022-11-24T07:07:22;7.30;99.90
3360;DHT22;1693;49.602;11.046;2022-11-24T07:09:51;7.30;99.90
3360;DHT22;1693;49.602;11.046;2022-11-24T07:12:18;7.40;99.90
3360;DHT22;1693;49.602;11.046;2022-11-24T07:14:45;7.40;99.90
3360;DHT22;1693;49.602;11.046;2022-11-24T07:17:12;7.40;99.90
3360;DHT22;1693;49.602;11.046;2022-11-24T07:19:41;7.50;99.90
3360;DHT22;1693;49.602;11.046;2022-11-24T07:22:08;7.50;99.90
3360;DHT22;1693;49.602;11.046;2022-11-24T07:24:35;7.50;99.90
3360;DHT22;1693;49.602;11.046;2022-11-24T07:27:03;7.50;99.90
3360;DHT22;1693;49.602;11.046;2022-11-24T07:29:30;7.50;99.90
3360;DHT22;1693;49.602;11.046;2022-11-24T07:31:57;7.50;99.90
3360;DHT22;1693;49.602;11.046;2022-11-24T07:34:24;7.50;99.90
3360;DHT22;1693;49.602;11.046;2022-11-24T07:36:54;7.50;99.90
3360;DHT22;1693;49.602;11.046;2022-11-24T07:39:24;7.50;99.90
3360;DHT22;1693;49.602;11.046;2022-11-24T07:41:52;7.50;99.90
3360;DHT22;1693;49.602;11.046;2022-11-24T07:44:20;7.50;99.90
3360;DHT22;1693;49.602;11.046;2022-11-24T07:46:48;7.50;99.90
3360;DHT22;1693;49.602;11.046;2022-11-24T07:49:15;7.60;99.90
3360;DHT22;1693;49.602;11.046;2022-11-24T07:51:43;7.60;99.90
3360;DHT22;1693;49.602;11.046;2022-11-24T07:54:13;7.70;99.90
3360;DHT22;1693;49.602;11.046;2022-11-24T07:56:40;7.90;99.90
3360;DHT22;1693;49.602;11.046;2022-11-24T07:59:07;8.10;99.90
3360;DHT22;1693;49.602;11.046;2022-11-24T08:01:34;8.10;99.90
3360;DHT22;1693;49.602;11.046;2022-11-24T08:04:01;8.20;99.90
3360;DHT22;1693;49.602;11.046;2022-11-24T08:06:28;8.20;99.90
3360;DHT22;1693;49.602;11.046;2022-11-24T08:08:55;8.20;99.90
3360;DHT22;1693;49.602;11.046;2022-11-24T08:11:24;8.30;99.90
3360;DHT22;1693;49.602;11.046;2022-11-24T08:13:51;8.20;99.90
3360;DHT22;1693;49.602;11.046;2022-11-24T08:16:19;8.30;99.90
3360;DHT22;1693;49.602;11.046;2022-11-24T08:18:48;8.40;99.90
3360;DHT22;1693;49.602;11.046;2022-11-24T08:21:16;8.40;99.90
3360;DHT22;1693;49.602;11.046;2022-11-24T08:23:43;8.40;99.90
3360;DHT22;1693;49.602;11.046;2022-11-24T08:26:12;8.40;99.90
3360;DHT22;1693;49.602;11.046;2022-11-24T08:28:43;8.40;99.90
3360;DHT22;1693;49.602;11.046;2022-11-24T08:31:12;8.70;99.90
3360;DHT22;1693;49.602;11.046;2022-11-24T08:33:40;8.70;99.90
3360;DHT22;1693;49.602;11.046;2022-11-24T08:36:09;8.80;99.90
3360;DHT22;1693;49.602;11.046;2022-11-24T08:38:37;8.80;99.90
3360;DHT22;1693;49.602;11.046;2022-11-24T08:41:05;8.90;99.90
3360;DHT22;1693;49.602;11.046;2022-11-24T08:43:33;8.80;99.90
3360;DHT22;1693;49.602;11.046;2022-11-24T08:46:01;9.00;99.90
3360;DHT22;1693;49.602;11.046;2022-11-24T08:48:29;9.10;99.90
3360;DHT22;1693;49.602;11.046;2022-11-24T08:50:56;9.30;99.90
3360;DHT22;1693;49.602;11.046;2022-11-24T08:53:24;9.50;99.90
3360;DHT22;1693;49.602;11.046;2022-11-24T08:55:51;9.40;99.90
3360;DHT22;1693;49.602;11.046;2022-11-24T08:58:18;9.50;99.90
3360;DHT22;1693;49.602;11.046;2022-11-24T09:00:45;9.50;99.90
3360;DHT22;1693;49.602;11.046;2022-11-24T09:03:13;9.40;99.90
3360;DHT22;1693;49.602;11.046;2022-11-24T09:05:40;9.50;99.90
3360;DHT22;1693;49.602;11.046;2022-11-24T09:08:08;9.50;99.90
3360;DHT22;1693;49.602;11.046;2022-11-24T09:10:35;9.50;99.90
3360;DHT22;1693;49.602;11.046;2022-11-24T09:13:02;9.50;99.90
3360;DHT22;1693;49.602;11.046;2022-11-24T09:15:30;9.40;99.90
3360;DHT22;1693;49.602;11.046;2022-11-24T09:17:57;9.40;99.90
3360;DHT22;1693;49.602;11.046;2022-11-24T09:20:25;9.40;99.90
3360;DHT22;1693;49.602;11.046;2022-11-24T09:22:52;9.40;99.90
3360;DHT22;1693;49.602;11.046;2022-11-24T09:25:19;9.30;99.90
3360;DHT22;1693;49.602;11.046;2022-11-24T09:27:48;9.30;99.90
3360;DHT22;1693;49.602;11.046;2022-11-24T09:30:15;9.10;99.90
3360;DHT22;1693;49.602;11.046;2022-11-24T09:32:42;9.10;99.90
3360;DHT22;1693;49.602;11.046;2022-11-24T09:35:09;9.10;99.90
3360;DHT22;1693;49.602;11.046;2022-11-24T09:37:37;9.10;99.90
3360;DHT22;1693;49.602;11.046;2022-11-24T09:40:08;9.10;99.90
3360;DHT22;1693;49.602;11.046;2022-11-24T09:42:42;9.00;99.90
3360;DHT22;1693;49.602;11.046;2022-11-24T09:45:18;8.90;99.90
3360;DHT22;1693;49.602;11.046;2022-11-24T09:48:00;8.70;99.90
3360;DHT22;1693;49.602;11.046;2022-11-24T09:50:31;8.60;99.90
3360;DHT22;1693;49.602;11.046;2022-11-24T09:53:07;8.60;99.90
3360;DHT22;1693;49.602;11.046;2022-11-24T09:55:38;8.60;99.90
3360;DHT22;1693;49.602;11.046;2022-11-24T09:58:14;8.60;99.90
3360;DHT22;1693;49.602;11.046;2022-11-24T10:00:44;8.60;99.90
3360;DHT22;1693;49.602;11.046;2022-11-24T10:03:18;8.70;99.90
3360;DHT22;1693;49.602;11.046;2022-11-24T10:05:49;8.80;99.90
3360;DHT22;1693;49.602;11.046;2022-11-24T10:08:31;8.80;99.90
3360;DHT22;1693;49.602;11.046;2022-11-24T10:11:04;8.90;99.90
3360;DHT22;1693;49.602;11.046;2022-11-24T10:13:52;9.00;99.90
3360;DHT22;1693;49.602;11.046;2022-11-24T10:16:34;8.90;99.90
3360;DHT22;1693;49.602;11.046;2022-11-24T10:19:10;8.70;99.90
3360;DHT22;1693;49.602;11.046;2022-11-24T10:21:54;8.60;99.90
3360;DHT22;1693;49.602;11.046;2022-11-24T10:24:47;8.50;99.90
3360;DHT22;1693;49.602;11.046;2022-11-24T10:27:18;8.40;99.90
3360;DHT22;1693;49.602;11.046;2022-11-24T10:29:50;8.30;99.90
3360;DHT22;1693;49.602;11.046;2022-11-24T10:32:20;8.20;99.90
3360;DHT22;1693;49.602;11.046;2022-11-24T10:34:50;8.10;99.90
3360;DHT22;1693;49.602;11.046;2022-11-24T10:37:22;8.10;99.90
3360;DHT22;1693;49.602;11.046;2022-11-24T10:39:59;8.10;99.90
3360;DHT22;1693;49.602;11.046;2022-11-24T10:42:31;8.10;99.90
3360;DHT22;1693;49.602;11.046;2022-11-24T10:45:08;8.00;99.90
3360;DHT22;1693;49.602;11.046;2022-11-24T10:47:36;8.00;99.90
3360;DHT22;1693;49.602;11.046;2022-11-24T10:50:05;8.00;99.90
3360;DHT22;1693;49.602;11.046;2022-11-24T10:52:40;8.00;99.90
3360;DHT22;1693;49.602;11.046;2022-11-24T10:55:11;8.00;99.90
3360;DHT22;1693;49.602;11.046;2022-11-24T10:57:39;8.00;99.90
3360;DHT22;1693;49.602;11.046;2022-11-24T11:00:30;8.00;99.90
3360;DHT22;1693;49.602;11.046;2022-11-24T11:03:18;8.10;99.90
3360;DHT22;1693;49.602;11.046;2022-11-24T11:05:50;8.10;99.90
3360;DHT22;1693;49.602;11.046;2022-11-24T11:08:24;8.10;99.90
3360;DHT22;1693;49.602;11.046;2022-11-24T11:11:17;8.10;99.90
3360;DHT22;1693;49.602;11.046;2022-11-24T11:13:51;8.20;99.90
3360;DHT22;1693;49.602;11.046;2022-11-24T11:16:33;8.20;99.90
3360;DHT22;1693;49.602;11.046;2022-11-24T11:19:04;8.20;99.90
3360;DHT22;1693;49.602;11.046;2022-11-24T11:21:35;8.20;99.90
3360;DHT22;1693;49.602;11.046;2022-11-24T11:24:12;8.30;99.90
3360;DHT22;1693;49.602;11.046;2022-11-24T11:26:43;8.30;99.90
3360;DHT22;1693;49.602;11.046;2022-11-24T11:29:16;8.20;99.90
3360;DHT22;1693;49.602;11.046;2022-11-24T11:32:01;8.30;99.90
3360;DHT22;1693;49.602;11.046;2022-11-24T11:34:32;8.50;99.90
3360;DHT22;1693;49.602;11.046;2022-11-24T11:37:02;8.50;99.90
3360;DHT22;1693;49.602;11.046;2022-11-24T11:39:32;8.60;99.90
3360;DHT22;1693;49.602;11.046;2022-11-24T11:42:10;8.60;99.90
3360;DHT22;1693;49.602;11.046;2022-11-24T11:44:44;8.60;99.90
3360;DHT22;1693;49.602;11.046;2022-11-24T11:47:22;8.60;99.90
3360;DHT22;1693;49.602;11.046;2022-11-24T11:49:51;8.60;99.90
3360;DHT22;1693;49.602;11.046;2022-11-24T11:52:38;8.80;99.90
3360;DHT22;1693;49.602;11.046;2022-11-24T11:55:25;8.90;99.90
3360;DHT22;1693;49.602;11.046;2022-11-24T11:58:17;8.90;99.90
3360;DHT22;1693;49.602;11.046;2022-11-24T12:00:59;9.00;99.90
3360;DHT22;1693;49.602;11.046;2022-11-24T12:03:50;8.90;99.90
3360;DHT22;1693;49.602;11.046;2022-11-24T12:09:39;8.90;99.90
3360;DHT22;1693;49.602;11.046;2022-11-24T12:15:19;9.10;99.90
3360;DHT22;1693;49.602;11.046;2022-11-24T12:17:51;9.20;99.90
3360;DHT22;1693;49.602;11.046;2022-11-24T12:20:43;9.40;99.90
3360;DHT22;1693;49.602;11.046;2022-11-24T12:23:20;10.50;99.90
3360;DHT22;1693;49.602;11.046;2022-11-24T12:25:58;10.70;99.90
3360;DHT22;1693;49.602;11.046;2022-11-24T12:28:35;10.80;99.90
3360;DHT22;1693;49.602;11.046;2022-11-24T12:31:16;10.70;99.90
3360;DHT22;1693;49.602;11.046;2022-11-24T12:34:15;10.90;99.90
3360;DHT22;1693;49.602;11.046;2022-11-24T12:37:15;11.30;99.90
3360;DHT22;1693;49.602;11.046;2022-11-24T12:39:54;11.80;99.90
3360;DHT22;1693;49.602;11.046;2022-11-24T12:42:33;11.80;99.90
3360;DHT22;1693;49.602;11.046;2022-11-24T12:45:10;11.80;99.90
3360;DHT22;1693;49.602;11.046;2022-11-24T12:48:15;11.90;99.90
3360;DHT22;1693;49.602;11.046;2022-11-24T12:50:46;11.80;99.90
3360;DHT22;1693;49.602;11.046;2022-11-24T12:53:18;11.70;99.90
3360;DHT22;1693;49.602;11.046;2022-11-24T12:55:49;11.60;99.90
3360;DHT22;1693;49.602;11.046;2022-11-24T12:58:24;11.30;99.90
3360;DHT22;1693;49.602;11.046;2022-11-24T13:01:05;11.00;99.90
3360;DHT22;1693;49.602;11.046;2022-11-24T13:03:49;10.80;99.90
3360;DHT22;1693;49.602;11.046;2022-11-24T13:06:22;10.50;99.90
3360;DHT22;1693;49.602;11.046;2022-11-24T13:08:51;10.20;99.90
3360;DHT22;1693;49.602;11.046;2022-11-24T13:11:38;10.00;99.90
3360;DHT22;1693;49.602;11.046;2022-11-24T13:14:15;9.90;99.90
3360;DHT22;1693;49.602;11.046;2022-11-24T13:16:52;10.00;99.90
3360;DHT22;1693;49.602;11.046;2022-11-24T13:19:25;10.00;99.90
3360;DHT22;1693;49.602;11.046;2022-11-24T13:22:02;10.20;99.90
3360;DHT22;1693;49.602;11.046;2022-11-24T13:24:37;11.10;99.90
3360;DHT22;1693;49.602;11.046;2022-11-24T13:33:37;11.60;99.90
3360;DHT22;1693;49.602;11.046;2022-11-24T13:36:50;10.80;99.90
3360;DHT22;1693;49.602;11.046;2022-11-24T13:39:20;10.50;99.90
3360;DHT22;1693;49.602;11.046;2022-11-24T13:41:59;10.00;99.90
3360;DHT22;1693;49.602;11.046;2022-11-24T13:44:47;9.60;99.90
3360;DHT22;1693;49.602;11.046;2022-11-24T13:47:35;9.30;99.90
3360;DHT22;1693;49.602;11.046;2022-11-24T13:50:07;9.10;99.90
3360;DHT22;1693;49.602;11.046;2022-11-24T13:52:40;9.00;99.90
3360;DHT22;1693;49.602;11.046;2022-11-24T13:55:21;9.00;99.90
3360;DHT22;1693;49.602;11.046;2022-11-24T13:57:56;9.10;99.90
3360;DHT22;1693;49.602;11.046;2022-11-24T14:00:27;9.10;99.90
3360;DHT22;1693;49.602;11.046;2022-11-24T14:02:59;9.00;99.90
3360;DHT22;1693;49.602;11.046;2022-11-24T14:05:34;8.80;99.90
3360;DHT22;1693;49.602;11.046;2022-11-24T14:08:04;8.70;99.90
3360;DHT22;1693;49.602;11.046;2022-11-24T14:10:36;8.70;99.90
3360;DHT22;1693;49.602;11.046;2022-11-24T14:13:23;8.60;99.90
3360;DHT22;1693;49.602;11.046;2022-11-24T14:16:04;8.50;99.90
3360;DHT22;1693;49.602;11.046;2022-11-24T14:18:35;8.50;99.90
3360;DHT22;1693;49.602;11.046;2022-11-24T14:21:26;8.50;99.90
3360;DHT22;1693;49.602;11.046;2022-11-24T14:23:57;8.50;99.90
3360;DHT22;1693;49.602;11.046;2022-11-24T14:26:32;8.50;99.90
3360;DHT22;1693;49.602;11.046;2022-11-24T14:29:05;8.50;99.90
3360;DHT22;1693;49.602;11.046;2022-11-24T14:31:34;8.50;99.90
3360;DHT22;1693;49.602;11.046;2022-11-24T14:34:14;8.50;99.90
3360;DHT22;1693;49.602;11.046;2022-11-24T14:36:41;8.50;99.90
3360;DHT22;1693;49.602;11.046;2022-11-24T14:39:13;8.50;99.90
3360;DHT22;1693;49.602;11.046;2022-11-24T14:41:48;8.50;99.90
3360;DHT22;1693;49.602;11.046;2022-11-24T14:44:20;8.50;99.90
3360;DHT22;1693;49.602;11.046;2022-11-24T14:46:49;8.50;99.90
3360;DHT22;1693;49.602;11.046;2022-11-24T14:49:18;8.60;99.90
3360;DHT22;1693;49.602;11.046;2022-11-24T14:51:53;8.60;99.90
3360;DHT22;1693;49.602;11.046;2022-11-24T14:54:24;8.70;99.90
3360;DHT22;1693;49.602;11.046;2022-11-24T14:56:58;8.70;99.90
3360;DHT22;1693;49.602;11.046;2022-11-24T14:59:29;8.70;99.90
3360;DHT22;1693;49.602;11.046;2022-11-24T15:01:58;8.70;99.90
3360;DHT22;1693;49.602;11.046;2022-11-24T15:04:26;8.70;99.90
3360;DHT22;1693;49.602;11.046;2022-11-24T15:07:12;8.70;99.90
3360;DHT22;1693;49.602;11.046;2022-11-24T15:09:49;8.80;99.90
3360;DHT22;1693;49.602;11.046;2022-11-24T15:12:25;8.80;99.90
3360;DHT22;1693;49.602;11.046;2022-11-24T15:14:57;8.70;99.90
3360;DHT22;1693;49.602;11.046;2022-11-24T15:17:25;8.70;99.90
3360;DHT22;1693;49.602;11.046;2022-11-24T15:19:58;8.70;99.90
3360;DHT22;1693;49.602;11.046;2022-11-24T15:22:38;8.70;99.90
3360;DHT22;1693;49.602;11.046;2022-11-24T15:25:27;8.70;99.90
3360;DHT22;1693;49.602;11.046;2022-11-24T15:27:56;8.70;99.90
3360;DHT22;1693;49.602;11.046;2022-11-24T15:30:23;8.60;99.90
3360;DHT22;1693;49.602;11.046;2022-11-24T15:32:54;8.60;99.90
3360;DHT22;1693;49.602;11.046;2022-11-24T15:35:23;8.60;99.90
3360;DHT22;1693;49.602;11.046;2022-11-24T15:37:51;8.60;99.90
3360;DHT22;1693;49.602;11.046;2022-11-24T15:40:20;8.60;99.90
3360;DHT22;1693;49.602;11.046;2022-11-24T15:42:51;8.70;99.90
3360;DHT22;1693;49.602;11.046;2022-11-24T15:45:19;8.70;99.90
3360;DHT22;1693;49.602;11.046;2022-11-24T15:47:47;8.70;99.90
3360;DHT22;1693;49.602;11.046;2022-11-24T15:50:15;8.70;99.90
3360;DHT22;1693;49.602;11.046;2022-11-24T15:52:44;8.70;99.90
3360;DHT22;1693;49.602;11.046;2022-11-24T15:55:17;8.50;99.90
3360;DHT22;1693;49.602;11.046;2022-11-24T15:57:46;8.60;99.90
3360;DHT22;1693;49.602;11.046;2022-11-24T16:00:21;8.50;99.90
3360;DHT22;1693;49.602;11.046;2022-11-24T16:02:50;8.50;99.90
3360;DHT22;1693;49.602;11.046;2022-11-24T16:05:18;8.50;99.90
3360;DHT22;1693;49.602;11.046;2022-11-24T16:07:46;8.50;99.90
3360;DHT22;1693;49.602;11.046;2022-11-24T16:10:23;8.50;99.90
3360;DHT22;1693;49.602;11.046;2022-11-24T16:12:51;8.40;99.90
3360;DHT22;1693;49.602;11.046;2022-11-24T16:15:19;8.30;99.90
3360;DHT22;1693;49.602;11.046;2022-11-24T16:17:49;8.30;99.90
3360;DHT22;1693;49.602;11.046;2022-11-24T16:20:17;8.40;99.90
3360;DHT22;1693;49.602;11.046;2022-11-24T16:22:46;8.40;99.90
3360;DHT22;1693;49.602;11.046;2022-11-24T16:25:13;8.50;99.90
3360;DHT22;1693;49.602;11.046;2022-11-24T16:27:41;8.60;99.90
3360;DHT22;1693;49.602;11.046;2022-11-24T16:30:11;8.60;99.90
3360;DHT22;1693;49.602;11.046;2022-11-24T16:32:43;8.60;99.90
3360;DHT22;1693;49.602;11.046;2022-11-24T16:35:12;8.50;99.90
3360;DHT22;1693;49.602;11.046;2022-11-24T16:37:41;8.50;99.90